Terminal Aerodrome Forecast
Issued by NWS

Home | Current Version | Previous Version | Text Only | Print | Product List | Glossary On
Versions: 1 2 3 4 5 6 7 8 9 10 11 12 13 14 15
000
FTUS44 KBMX 250257 AAB
TAFTCL
TAF AMD
KTCL 250257Z 2503/2524 12006KT P6SM VCSH BKN060
     FM250800 15010KT P6SM OVC015
      TEMPO 2511/2515 4SM BR OVC007
     FM251800 15006KT 5SM SHRA VCTS SCT020 BKN040CB=

USA.gov is the U.S. government's official web portal to all federal, state and local government web resources and services.